Time;durP1;ratioP1;P1;durP2;ratioP2;P2;SDS_P1;SDS_P2;PMS_P1;PMS_P2;Temp;Humidity;BMP_temperature;BMP_pressure;BME280_temperature;BME280_humidity;BME280_pressure;Samples;Min_cycle;Max_cycle;Signal;HPM_P1;HPM_P2
2022/06/05 00:02:01;;;;;;;;;;;23.40;60.90;;;;;;5053414;28;19909;-72
2022/06/05 00:04:33;;;;;;;;;;;23.40;61.00;;;;;;5053355;28;19927;-71
2022/06/05 00:07:05;;;;;;;;;;;23.30;61.00;;;;;;5053349;28;19996;-73
2022/06/05 00:09:33;;;;;;;;;;;23.40;60.90;;;;;;5053311;28;19909;-72
2022/06/05 00:12:04;;;;;;;;;;;23.20;61.40;;;;;;5053010;28;19916;-73
2022/06/05 00:14:30;;;;;;;;;;;23.20;61.70;;;;;;5053259;28;19920;-71
2022/06/05 00:16:56;;;;;;;;;;;23.40;61.60;;;;;;5052018;28;19908;-72
2022/06/05 00:19:21;;;;;;;;;;;23.50;61.20;;;;;;5053789;28;20380;-73
2022/06/05 00:21:47;;;;;;;;;;;23.60;60.80;;;;;;5053333;28;19909;-71
2022/06/05 00:24:12;;;;;;;;;;;23.60;60.50;;;;;;5053920;28;20379;-70
2022/06/05 00:26:54;;;;;;;;;;;23.50;60.80;;;;;;5055778;28;19913;-68
2022/06/05 00:29:41;;;;;;;;;;;23.50;60.80;;;;;;5057498;28;19915;-70
2022/06/05 00:32:13;;;;;;;;;;;23.30;61.20;;;;;;5057833;28;19909;-71
2022/06/05 00:34:39;;;;;;;;;;;23.20;61.60;;;;;;5059144;28;19916;-70
2022/06/05 00:37:13;;;;;;;;;;;23.10;62.30;;;;;;5058183;28;19908;-71
2022/06/05 00:39:57;;;;;;;;;;;23.00;62.70;;;;;;5056682;28;19909;-69
2022/06/05 00:42:27;;;;;;;;;;;23.00;62.70;;;;;;5056540;28;19943;-69
2022/06/05 00:44:54;;;;;;;;;;;23.20;62.70;;;;;;5056770;28;19917;-71
2022/06/05 00:47:22;;;;;;;;;;;23.10;62.30;;;;;;5056651;28;19917;-70
2022/06/05 00:49:53;;;;;;;;;;;23.00;62.70;;;;;;5056259;28;19909;-66
2022/06/05 00:52:20;;;;;;;;;;;23.00;62.60;;;;;;5056691;28;19909;-67
2022/06/05 00:54:46;;;;;;;;;;;23.10;62.60;;;;;;5056441;28;19916;-68
2022/06/05 00:57:12;;;;;;;;;;;23.20;62.80;;;;;;5056308;28;19909;-68
2022/06/05 00:59:39;;;;;;;;;;;23.20;62.10;;;;;;5056409;28;19909;-71
2022/06/05 01:02:05;;;;;;;;;;;23.10;62.30;;;;;;5056305;28;19909;-69
2022/06/05 01:04:32;;;;;;;;;;;23.00;62.60;;;;;;5056271;28;19924;-69
2022/06/05 01:06:57;;;;;;;;;;;23.00;62.80;;;;;;5056103;28;20381;-67
2022/06/05 01:09:23;;;;;;;;;;;23.10;62.90;;;;;;5055987;28;19948;-67
2022/06/05 01:12:08;;;;;;;;;;;23.00;63.30;;;;;;5056081;28;19909;-66
2022/06/05 01:14:41;;;;;;;;;;;22.80;63.70;;;;;;5056040;28;20000;-67
2022/06/05 01:17:39;;;;;;;;;;;22.80;63.80;;;;;;5056046;28;20283;-68
2022/06/05 01:20:28;;;;;;;;;;;23.00;63.50;;;;;;5043924;28;20384;-69
2022/06/05 01:23:12;;;;;;;;;;;22.90;63.40;;;;;;5055771;28;19996;-66
2022/06/05 01:25:52;;;;;;;;;;;22.90;63.90;;;;;;5055694;28;20007;-66
2022/06/05 01:28:19;;;;;;;;;;;22.80;64.50;;;;;;5056160;28;19948;-67
2022/06/05 01:30:49;;;;;;;;;;;22.80;64.50;;;;;;5055841;28;19909;-67
2022/06/05 01:33:21;;;;;;;;;;;22.80;64.50;;;;;;5055792;28;20344;-69
2022/06/05 01:35:58;;;;;;;;;;;22.80;65.00;;;;;;5055625;28;19951;-67
2022/06/05 01:38:29;;;;;;;;;;;22.70;65.10;;;;;;5054360;28;19913;-66
2022/06/05 01:40:56;;;;;;;;;;;22.80;65.30;;;;;;5055596;28;19959;-68
2022/06/05 01:43:24;;;;;;;;;;;22.70;65.60;;;;;;5055498;28;20444;-68
2022/06/05 01:45:56;;;;;;;;;;;22.80;64.90;;;;;;5055525;28;19925;-68
2022/06/05 01:48:23;;;;;;;;;;;23.00;65.00;;;;;;5055326;28;20275;-67
2022/06/05 01:50:53;;;;;;;;;;;23.10;64.80;;;;;;5055788;28;20049;-66
2022/06/05 01:53:24;;;;;;;;;;;23.10;64.60;;;;;;5055153;28;19916;-67
2022/06/05 01:56:00;;;;;;;;;;;23.20;64.80;;;;;;5055395;28;19920;-67
2022/06/05 01:58:29;;;;;;;;;;;23.00;65.60;;;;;;5055117;28;19912;-69
2022/06/05 02:00:57;;;;;;;;;;;22.80;66.40;;;;;;5055272;28;19909;-65
2022/06/05 02:03:29;;;;;;;;;;;22.70;67.40;;;;;;5054936;28;19915;-69
2022/06/05 02:05:57;;;;;;;;;;;22.60;67.80;;;;;;5055199;28;19921;-68
2022/06/05 02:08:34;;;;;;;;;;;22.50;68.10;;;;;;5055288;28;19913;-67
2022/06/05 02:11:04;;;;;;;;;;;22.60;68.00;;;;;;5054806;28;20258;-68
2022/06/05 02:13:30;;;;;;;;;;;22.80;67.50;;;;;;5054653;28;20269;-68
2022/06/05 02:15:55;;;;;;;;;;;22.90;67.20;;;;;;5055012;28;20344;-67
2022/06/05 02:18:22;;;;;;;;;;;22.70;67.90;;;;;;5055173;28;19908;-69
2022/06/05 02:20:48;;;;;;;;;;;22.80;68.00;;;;;;5054588;28;19916;-68
2022/06/05 02:23:18;;;;;;;;;;;22.90;67.10;;;;;;5054928;28;19915;-68
2022/06/05 02:25:44;;;;;;;;;;;22.90;67.20;;;;;;5054695;28;20391;-67
2022/06/05 02:28:18;;;;;;;;;;;22.70;67.70;;;;;;5054777;28;19913;-67
2022/06/05 02:30:49;;;;;;;;;;;22.60;68.20;;;;;;5054484;28;19912;-68
2022/06/05 02:33:33;;;;;;;;;;;22.60;68.20;;;;;;5054478;28;19951;-70
2022/06/05 02:36:06;;;;;;;;;;;22.60;68.10;;;;;;5054590;28;19908;-68
2022/06/05 02:38:38;;;;;;;;;;;22.50;69.40;;;;;;5054137;28;19908;-66
2022/06/05 02:41:19;;;;;;;;;;;22.60;68.50;;;;;;5054183;28;19925;-69
2022/06/05 02:44:29;;;;;;;;;;;22.50;69.10;;;;;;5054649;28;19916;-68
2022/06/05 02:46:41;;;;;;;;;;;22.50;69.60;;;;;;5054348;28;19917;-68
2022/06/05 02:49:16;;;;;;;;;;;22.40;70.30;;;;;;5054155;28;20367;-69
2022/06/05 02:51:43;;;;;;;;;;;22.40;70.50;;;;;;5054187;28;19916;-69
2022/06/05 02:54:18;;;;;;;;;;;22.30;70.80;;;;;;5054412;28;19952;-68
2022/06/05 02:56:43;;;;;;;;;;;22.40;70.90;;;;;;5053957;28;19908;-68
2022/06/05 02:59:09;;;;;;;;;;;22.40;71.00;;;;;;5054359;28;20368;-69
2022/06/05 03:04:18;;;;;;;;;;;22.30;71.70;;;;;;5053982;28;19920;-68
2022/06/05 03:06:44;;;;;;;;;;;22.30;71.60;;;;;;5053795;28;19908;-68
2022/06/05 03:09:09;;;;;;;;;;;22.30;71.60;;;;;;5054024;28;19912;-68
2022/06/05 03:11:35;;;;;;;;;;;22.40;71.60;;;;;;5054010;28;19909;-67
2022/06/05 03:14:00;;;;;;;;;;;22.30;71.80;;;;;;5053751;28;19954;-68
2022/06/05 03:16:28;;;;;;;;;;;22.30;71.90;;;;;;5053665;28;20011;-67
2022/06/05 03:18:53;;;;;;;;;;;22.40;72.00;;;;;;5054081;28;20426;-68
2022/06/05 03:21:19;;;;;;;;;;;22.40;72.30;;;;;;5053762;28;19912;-68
2022/06/05 03:23:45;;;;;;;;;;;22.30;72.60;;;;;;5052526;28;19999;-68
2022/06/05 03:26:11;;;;;;;;;;;22.40;72.80;;;;;;5053773;28;19928;-67
2022/06/05 03:28:37;;;;;;;;;;;22.50;72.40;;;;;;5052222;28;19944;-69
2022/06/05 03:31:04;;;;;;;;;;;22.40;72.70;;;;;;5053638;28;19950;-69
2022/06/05 03:33:29;;;;;;;;;;;22.50;72.70;;;;;;5053643;28;19919;-67
2022/06/05 03:35:55;;;;;;;;;;;22.50;72.70;;;;;;5053749;28;19912;-68
2022/06/05 03:38:21;;;;;;;;;;;22.50;72.90;;;;;;5053562;28;19909;-67
2022/06/05 03:40:46;;;;;;;;;;;22.50;73.20;;;;;;5053510;28;20004;-68
2022/06/05 03:43:12;;;;;;;;;;;22.60;72.80;;;;;;5052256;28;19908;-67
2022/06/05 03:45:38;;;;;;;;;;;22.60;73.10;;;;;;5053355;28;19920;-68
2022/06/05 03:48:03;;;;;;;;;;;22.50;73.50;;;;;;5053820;28;19955;-68
2022/06/05 03:50:29;;;;;;;;;;;22.40;73.90;;;;;;5053579;28;20284;-68
2022/06/05 03:52:55;;;;;;;;;;;22.40;74.30;;;;;;5053445;28;19948;-68
2022/06/05 03:55:21;;;;;;;;;;;22.50;74.10;;;;;;5052394;28;19908;-68
2022/06/05 03:57:47;;;;;;;;;;;22.50;74.20;;;;;;5053625;28;20003;-68
2022/06/05 04:00:15;;;;;;;;;;;22.40;74.40;;;;;;5053285;28;19908;-68
2022/06/05 04:02:40;;;;;;;;;;;22.60;73.80;;;;;;5057190;28;19914;-67
2022/06/05 04:05:07;;;;;;;;;;;22.70;73.30;;;;;;5057232;28;19924;-70
2022/06/05 04:07:33;;;;;;;;;;;22.80;72.70;;;;;;5057200;28;19955;-69
2022/06/05 04:09:58;;;;;;;;;;;22.80;73.10;;;;;;5057155;28;20253;-68
2022/06/05 04:12:24;;;;;;;;;;;22.80;73.40;;;;;;5057123;28;19909;-68
2022/06/05 04:14:49;;;;;;;;;;;22.70;73.60;;;;;;5056991;28;19917;-69
2022/06/05 04:17:15;;;;;;;;;;;22.90;73.00;;;;;;5056949;28;20003;-67
2022/06/05 04:19:41;;;;;;;;;;;23.10;72.30;;;;;;5057160;28;20447;-67
2022/06/05 04:22:07;;;;;;;;;;;23.30;71.60;;;;;;5057084;28;19909;-69
2022/06/05 04:24:32;;;;;;;;;;;23.50;71.00;;;;;;5057095;28;19944;-67
2022/06/05 04:26:58;;;;;;;;;;;23.40;70.40;;;;;;5056816;28;19913;-68
2022/06/05 04:29:24;;;;;;;;;;;23.20;70.90;;;;;;5056612;28;19909;-67
2022/06/05 04:31:50;;;;;;;;;;;23.30;71.10;;;;;;5056800;28;20337;-66
2022/06/05 04:34:19;;;;;;;;;;;23.30;71.70;;;;;;5057004;28;20253;-68
2022/06/05 04:36:45;;;;;;;;;;;23.30;71.80;;;;;;5056672;28;19955;-68
2022/06/05 04:39:11;;;;;;;;;;;23.40;71.30;;;;;;5056703;28;19920;-67
2022/06/05 04:41:37;;;;;;;;;;;23.50;71.20;;;;;;5056326;28;19924;-69
2022/06/05 04:44:03;;;;;;;;;;;23.40;71.70;;;;;;5056499;28;19913;-68
2022/06/05 04:46:28;;;;;;;;;;;23.40;72.10;;;;;;5056442;28;20008;-66
2022/06/05 04:48:54;;;;;;;;;;;23.40;72.20;;;;;;5056632;28;19955;-68
2022/06/05 04:51:20;;;;;;;;;;;23.50;71.20;;;;;;5056524;28;19939;-67
2022/06/05 04:53:46;;;;;;;;;;;23.40;71.30;;;;;;5056212;28;19934;-68
2022/06/05 04:56:14;;;;;;;;;;;23.40;71.10;;;;;;5056304;28;19909;-67
2022/06/05 04:58:40;;;;;;;;;;;23.50;71.10;;;;;;5056242;28;19912;-68
2022/06/05 05:01:09;;;;;;;;;;;23.60;71.00;;;;;;5056162;28;20047;-68
2022/06/05 05:03:35;;;;;;;;;;;23.80;71.00;;;;;;5054859;28;20265;-67
2022/06/05 05:06:00;;;;;;;;;;;23.70;72.60;;;;;;5055979;28;19923;-67
2022/06/05 05:08:26;;;;;;;;;;;23.70;72.40;;;;;;5056166;28;20373;-68
2022/06/05 05:10:51;;;;;;;;;;;23.80;72.10;;;;;;5056411;28;20003;-66
2022/06/05 05:13:17;;;;;;;;;;;23.80;72.20;;;;;;5055845;28;19912;-68
2022/06/05 05:15:47;;;;;;;;;;;23.80;71.60;;;;;;5057521;28;19915;-68
2022/06/05 05:18:13;;;;;;;;;;;23.90;72.10;;;;;;5058437;28;19909;-67
2022/06/05 05:20:38;;;;;;;;;;;23.90;72.50;;;;;;5059054;28;19978;-67
2022/06/05 05:23:04;;;;;;;;;;;24.00;72.00;;;;;;5057097;28;19913;-66
2022/06/05 05:25:29;;;;;;;;;;;24.00;71.50;;;;;;5058977;28;19967;-66
2022/06/05 05:27:55;;;;;;;;;;;24.10;70.80;;;;;;5059112;28;19943;-67
2022/06/05 05:30:21;;;;;;;;;;;24.20;69.60;;;;;;5056172;28;19935;-67
2022/06/05 05:32:46;;;;;;;;;;;24.30;71.10;;;;;;5055982;28;20276;-67
2022/06/05 05:35:12;;;;;;;;;;;24.30;71.90;;;;;;5055741;28;19909;-66
2022/06/05 05:37:37;;;;;;;;;;;24.50;70.90;;;;;;5055809;28;20356;-67
2022/06/05 05:42:47;;;;;;;;;;;25.10;68.40;;;;;;5055459;28;19927;-67
2022/06/05 05:45:13;;;;;;;;;;;25.50;68.80;;;;;;5055486;28;19917;-66
2022/06/05 05:47:39;;;;;;;;;;;25.80;68.00;;;;;;5054982;28;19963;-67
2022/06/05 05:50:06;;;;;;;;;;;26.00;65.90;;;;;;5055564;28;19975;-68
2022/06/05 05:52:32;;;;;;;;;;;25.90;63.70;;;;;;5055043;28;19916;-69
2022/06/05 05:54:57;;;;;;;;;;;26.00;63.60;;;;;;5055182;28;20007;-69
2022/06/05 05:57:23;;;;;;;;;;;26.20;62.70;;;;;;5055044;28;19963;-67
2022/06/05 05:59:49;;;;;;;;;;;26.40;61.90;;;;;;5054008;28;20403;-67
2022/06/05 06:02:18;;;;;;;;;;;26.50;61.40;;;;;;5054890;28;19915;-69
2022/06/05 06:04:44;;;;;;;;;;;26.70;61.20;;;;;;5054914;28;19921;-67
2022/06/05 06:07:10;;;;;;;;;;;26.70;60.40;;;;;;5053449;28;20318;-68
2022/06/05 06:09:36;;;;;;;;;;;26.80;60.50;;;;;;5055221;28;19916;-69
2022/06/05 06:12:02;;;;;;;;;;;26.60;60.80;;;;;;5055116;28;19912;-68
2022/06/05 06:14:27;;;;;;;;;;;26.60;61.30;;;;;;5054926;28;19908;-65
2022/06/05 06:16:53;;;;;;;;;;;27.00;60.80;;;;;;5054891;28;19909;-70
2022/06/05 06:19:18;;;;;;;;;;;27.40;59.60;;;;;;5053573;28;19908;-72
2022/06/05 06:21:44;;;;;;;;;;;27.70;58.30;;;;;;5054678;28;19944;-78
2022/06/05 06:24:11;;;;;;;;;;;28.00;57.60;;;;;;5054222;28;19948;-74
2022/06/05 06:26:36;;;;;;;;;;;28.30;56.80;;;;;;5054871;28;19919;-70
2022/06/05 06:29:02;;;;;;;;;;;28.50;56.40;;;;;;5054903;28;19909;-69
2022/06/05 06:31:28;;;;;;;;;;;28.70;56.10;;;;;;5054278;28;19909;-68
2022/06/05 06:33:53;;;;;;;;;;;28.90;55.80;;;;;;5053822;28;20258;-73
2022/06/05 06:36:19;;;;;;;;;;;29.00;55.40;;;;;;5054340;28;19909;-75
2022/06/05 06:38:45;;;;;;;;;;;29.10;54.90;;;;;;5054199;28;19908;-76
2022/06/05 06:41:12;;;;;;;;;;;29.20;54.80;;;;;;5054016;28;19970;-79
2022/06/05 06:43:38;;;;;;;;;;;29.30;54.20;;;;;;5053210;28;20280;-77
2022/06/05 06:46:04;;;;;;;;;;;29.40;54.10;;;;;;5054392;28;19917;-76
2022/06/05 06:48:29;;;;;;;;;;;29.50;54.10;;;;;;5054514;28;19915;-76
2022/06/05 06:50:56;;;;;;;;;;;29.50;54.10;;;;;;5054166;28;19913;-69
2022/06/05 06:53:22;;;;;;;;;;;29.50;54.00;;;;;;5054073;28;19917;-71
2022/06/05 06:55:48;;;;;;;;;;;29.60;54.00;;;;;;5054417;28;20311;-71
2022/06/05 06:58:13;;;;;;;;;;;29.80;54.20;;;;;;5069854;28;20422;-70
2022/06/05 07:00:39;;;;;;;;;;;29.80;53.80;;;;;;5073364;28;19908;-70
2022/06/05 07:03:04;;;;;;;;;;;29.80;53.50;;;;;;5073414;28;19908;-71
2022/06/05 07:05:30;;;;;;;;;;;29.90;53.90;;;;;;5073395;28;20284;-70
2022/06/05 07:07:56;;;;;;;;;;;29.90;53.60;;;;;;5073605;28;19915;-71
2022/06/05 07:10:22;;;;;;;;;;;29.90;53.50;;;;;;5073355;28;19908;-73
2022/06/05 07:12:48;;;;;;;;;;;30.00;53.40;;;;;;5073376;28;19922;-71
2022/06/05 07:15:14;;;;;;;;;;;30.00;53.40;;;;;;5073392;28;20352;-67
2022/06/05 07:17:39;;;;;;;;;;;30.00;53.00;;;;;;5073405;28;19908;-67
2022/06/05 07:20:05;;;;;;;;;;;30.00;52.70;;;;;;5073774;28;19916;-72
2022/06/05 07:22:31;;;;;;;;;;;30.00;53.00;;;;;;5073480;28;20007;-70
2022/06/05 07:24:56;;;;;;;;;;;30.10;53.10;;;;;;5074776;28;19924;-70
2022/06/05 07:27:22;;;;;;;;;;;30.10;53.20;;;;;;5074721;28;19942;-69
2022/06/05 07:29:47;;;;;;;;;;;30.20;52.80;;;;;;5073984;28;19908;-70
2022/06/05 07:32:14;;;;;;;;;;;30.20;52.50;;;;;;5072684;28;19958;-70
2022/06/05 07:34:39;;;;;;;;;;;30.30;52.00;;;;;;5072958;28;19909;-69
2022/06/05 07:37:05;;;;;;;;;;;30.30;51.70;;;;;;5075643;28;19978;-70
2022/06/05 07:39:30;;;;;;;;;;;30.40;51.30;;;;;;5077383;28;19908;-70
2022/06/05 07:41:59;;;;;;;;;;;30.40;50.80;;;;;;5076953;28;19924;-69
2022/06/05 07:44:25;;;;;;;;;;;30.40;50.80;;;;;;5074753;28;20341;-67
2022/06/05 07:46:51;;;;;;;;;;;30.50;51.00;;;;;;5077071;28;19947;-68
2022/06/05 07:49:17;;;;;;;;;;;30.50;51.30;;;;;;5077089;28;19958;-71
2022/06/05 07:54:27;;;;;;;;;;;30.50;51.50;;;;;;5074598;28;19996;-70
2022/06/05 07:56:57;;;;;;;;;;;30.60;51.50;;;;;;5076904;28;20386;-70
2022/06/05 07:59:23;;;;;;;;;;;30.60;51.40;;;;;;5076931;28;19943;-69
2022/06/05 08:01:49;;;;;;;;;;;30.60;51.50;;;;;;5076720;28;19915;-69
2022/06/05 08:04:14;;;;;;;;;;;30.60;51.90;;;;;;5076600;28;19908;-63
2022/06/05 08:06:40;;;;;;;;;;;30.70;51.20;;;;;;5076704;28;19916;-73
2022/06/05 08:09:06;;;;;;;;;;;30.80;50.90;;;;;;5076696;28;19908;-71
2022/06/05 08:11:32;;;;;;;;;;;30.80;50.60;;;;;;5076549;28;19908;-72
2022/06/05 08:13:58;;;;;;;;;;;30.70;50.80;;;;;;5076320;28;19991;-71
2022/06/05 08:16:30;;;;;;;;;;;30.80;50.90;;;;;;5075939;28;19990;-72
2022/06/05 08:18:55;;;;;;;;;;;30.80;51.10;;;;;;5075669;28;19909;-74
2022/06/05 08:21:22;;;;;;;;;;;30.80;51.10;;;;;;5076937;28;19962;-71
2022/06/05 08:23:48;;;;;;;;;;;30.70;51.40;;;;;;5076176;28;19966;-71
2022/06/05 08:26:13;;;;;;;;;;;30.70;51.10;;;;;;5076014;28;19916;-74
2022/06/05 08:28:40;;;;;;;;;;;30.60;50.90;;;;;;5076241;28;20043;-75
2022/06/05 08:31:06;;;;;;;;;;;30.60;51.30;;;;;;5075973;28;19909;-73
2022/06/05 08:33:32;;;;;;;;;;;30.60;50.90;;;;;;5076332;28;19915;-73
2022/06/05 08:35:57;;;;;;;;;;;30.60;51.40;;;;;;5074822;28;19987;-72
2022/06/05 08:41:27;;;;;;;;;;;30.60;51.20;;;;;;5075738;28;20069;-69
2022/06/05 08:43:59;;;;;;;;;;;30.50;50.80;;;;;;5076411;28;19995;-68
2022/06/05 08:46:26;;;;;;;;;;;30.50;50.50;;;;;;5075926;28;19923;-71
2022/06/05 08:49:04;;;;;;;;;;;30.40;51.00;;;;;;5075796;28;19935;-69
2022/06/05 08:51:40;;;;;;;;;;;30.40;51.20;;;;;;5075715;28;19915;-68
2022/06/05 08:54:16;;;;;;;;;;;30.40;51.10;;;;;;5075633;28;19916;-69
2022/06/05 08:56:46;;;;;;;;;;;30.30;51.10;;;;;;5075825;28;19909;-67
2022/06/05 08:59:23;;;;;;;;;;;30.30;51.30;;;;;;5075651;28;19915;-68
2022/06/05 09:01:51;;;;;;;;;;;30.30;51.40;;;;;;5075714;28;19909;-68
2022/06/05 09:04:25;;;;;;;;;;;30.30;51.50;;;;;;5075587;28;19908;-68
2022/06/05 09:06:54;;;;;;;;;;;30.40;51.20;;;;;;5072882;28;19912;-71
2022/06/05 09:09:39;;;;;;;;;;;30.30;51.40;;;;;;5075520;28;19996;-67
2022/06/05 09:12:15;;;;;;;;;;;30.30;51.40;;;;;;5075033;28;20565;-70
2022/06/05 09:15:00;;;;;;;;;;;30.30;51.30;;;;;;5075267;28;19908;-70
2022/06/05 09:17:26;;;;;;;;;;;30.20;52.10;;;;;;5074861;28;20006;-70
2022/06/05 09:19:52;;;;;;;;;;;30.20;51.70;;;;;;5075535;28;19959;-69
2022/06/05 09:22:41;;;;;;;;;;;30.20;51.60;;;;;;5075282;28;20313;-71
2022/06/05 09:25:22;;;;;;;;;;;30.30;51.40;;;;;;5069548;28;19962;-66
2022/06/05 09:27:50;;;;;;;;;;;30.30;51.70;;;;;;5075174;28;19908;-68
2022/06/05 09:30:20;;;;;;;;;;;30.30;52.00;;;;;;5075302;28;19908;-69
2022/06/05 09:32:50;;;;;;;;;;;30.30;51.30;;;;;;5075352;28;20391;-69
2022/06/05 09:35:16;;;;;;;;;;;30.30;51.40;;;;;;5075621;28;19949;-68
2022/06/05 09:37:48;;;;;;;;;;;30.20;51.20;;;;;;5075358;28;19908;-68
2022/06/05 09:40:14;;;;;;;;;;;30.20;51.30;;;;;;5075347;28;20322;-68
2022/06/05 09:42:44;;;;;;;;;;;30.30;51.20;;;;;;5075305;28;19917;-68
2022/06/05 09:45:25;;;;;;;;;;;30.20;51.50;;;;;;5075636;28;19923;-67
2022/06/05 09:48:00;;;;;;;;;;;30.30;51.70;;;;;;5074818;28;19920;-70
2022/06/05 09:50:29;;;;;;;;;;;30.30;51.30;;;;;;5074694;28;20250;-67
2022/06/05 09:52:55;;;;;;;;;;;30.30;50.50;;;;;;5072038;28;19909;-67
2022/06/05 09:55:21;;;;;;;;;;;30.20;50.60;;;;;;5074878;28;19935;-69
2022/06/05 10:00:48;;;;;;;;;;;30.00;51.00;;;;;;5073490;28;20413;-73
2022/06/05 10:03:16;;;;;;;;;;;29.90;51.30;;;;;;5074461;28;19916;-74
2022/06/05 10:05:45;;;;;;;;;;;29.90;51.10;;;;;;5074482;28;19921;-69
2022/06/05 10:08:18;;;;;;;;;;;29.80;51.50;;;;;;5074519;28;19995;-68
2022/06/05 10:10:45;;;;;;;;;;;29.80;52.80;;;;;;5074512;28;19943;-73
2022/06/05 10:13:23;;;;;;;;;;;29.80;51.70;;;;;;5077220;28;19912;-65
2022/06/05 10:16:02;;;;;;;;;;;29.70;52.10;;;;;;5073615;28;19942;-67
2022/06/05 10:18:33;;;;;;;;;;;29.70;52.80;;;;;;5075598;28;19909;-66
2022/06/05 10:21:02;;;;;;;;;;;29.70;52.40;;;;;;5075073;28;20016;-65
2022/06/05 10:23:45;;;;;;;;;;;29.70;52.80;;;;;;5075466;28;19908;-69
2022/06/05 10:26:11;;;;;;;;;;;29.80;53.00;;;;;;5074465;28;19920;-64
2022/06/05 10:28:39;;;;;;;;;;;29.80;52.60;;;;;;5074166;28;20007;-70
2022/06/05 10:31:07;;;;;;;;;;;29.70;52.40;;;;;;5074377;28;20533;-68
2022/06/05 10:33:39;;;;;;;;;;;29.70;52.80;;;;;;5072847;28;19948;-61
2022/06/05 10:36:22;;;;;;;;;;;29.60;52.80;;;;;;5073792;28;19919;-65
2022/06/05 10:39:11;;;;;;;;;;;29.60;52.90;;;;;;5073323;28;19916;-68
2022/06/05 10:41:39;;;;;;;;;;;29.60;52.70;;;;;;5073684;28;20368;-63
2022/06/05 10:44:15;;;;;;;;;;;29.70;53.70;;;;;;5074029;28;20361;-66
2022/06/05 10:46:53;;;;;;;;;;;29.70;53.80;;;;;;5074091;28;20407;-65
2022/06/05 10:49:29;;;;;;;;;;;29.70;54.20;;;;;;5073626;28;20464;-63
2022/06/05 10:51:57;;;;;;;;;;;29.80;53.80;;;;;;5073884;28;19951;-63
2022/06/05 10:54:29;;;;;;;;;;;29.80;53.60;;;;;;5074080;28;20393;-61
2022/06/05 10:56:55;;;;;;;;;;;29.80;53.70;;;;;;5073875;28;19916;-62
2022/06/05 10:59:35;;;;;;;;;;;29.80;54.00;;;;;;5073977;28;19912;-70
2022/06/05 11:02:14;;;;;;;;;;;29.80;53.80;;;;;;5073782;28;19928;-64
2022/06/05 11:04:58;;;;;;;;;;;29.80;53.70;;;;;;5073778;28;19912;-64
2022/06/05 11:07:24;;;;;;;;;;;29.80;54.30;;;;;;5073782;28;19966;-71
2022/06/05 11:10:18;;;;;;;;;;;29.80;54.30;;;;;;5073996;28;20315;-69
2022/06/05 11:15:36;;;;;;;;;;;29.80;54.60;;;;;;5073821;28;19914;-65
2022/06/05 11:18:23;;;;;;;;;;;29.90;54.40;;;;;;5073675;28;19966;-75
2022/06/05 11:20:54;;;;;;;;;;;30.00;54.40;;;;;;5073765;28;19908;-72
2022/06/05 11:23:22;;;;;;;;;;;30.00;53.80;;;;;;5071268;28;19908;-65
2022/06/05 11:25:51;;;;;;;;;;;30.10;53.80;;;;;;5073218;28;19917;-75
2022/06/05 11:28:41;;;;;;;;;;;30.10;53.20;;;;;;5073111;28;19908;-74
2022/06/05 11:31:12;;;;;;;;;;;30.10;53.40;;;;;;5072778;28;19913;-72
2022/06/05 11:33:58;;;;;;;;;;;30.20;54.50;;;;;;5073159;28;20021;-70
2022/06/05 11:36:27;;;;;;;;;;;30.20;53.60;;;;;;5072662;28;19908;-73
2022/06/05 11:39:12;;;;;;;;;;;30.20;53.70;;;;;;5073058;28;20002;-77
2022/06/05 11:41:48;;;;;;;;;;;30.30;53.50;;;;;;5072416;28;19920;-73
2022/06/05 11:44:14;;;;;;;;;;;30.30;53.20;;;;;;5072884;28;19913;-73
2022/06/05 11:46:47;;;;;;;;;;;30.30;53.00;;;;;;5072807;28;19942;-63
2022/06/05 11:49:20;;;;;;;;;;;30.30;52.60;;;;;;5072863;28;19909;-70
2022/06/05 11:51:48;;;;;;;;;;;30.30;52.80;;;;;;5073076;28;20317;-76
2022/06/05 11:54:19;;;;;;;;;;;30.30;53.00;;;;;;5072783;28;19908;-74
2022/06/05 11:57:03;;;;;;;;;;;30.20;53.10;;;;;;5072854;28;19913;-74
2022/06/05 11:59:47;;;;;;;;;;;30.10;54.00;;;;;;5072290;28;19962;-72
2022/06/05 12:02:31;;;;;;;;;;;30.00;54.40;;;;;;5072566;28;19912;-75
2022/06/05 12:04:56;;;;;;;;;;;29.80;55.30;;;;;;5072037;28;19912;-71
2022/06/05 12:07:23;;;;;;;;;;;29.70;57.00;;;;;;5072093;28;19936;-71
2022/06/05 12:09:52;;;;;;;;;;;29.60;57.50;;;;;;5072190;28;19909;-70
2022/06/05 12:12:20;;;;;;;;;;;29.50;57.40;;;;;;5072052;28;19919;-71
2022/06/05 12:14:50;;;;;;;;;;;29.50;56.90;;;;;;5070239;28;19958;-72
2022/06/05 12:17:16;;;;;;;;;;;29.50;56.20;;;;;;5071962;28;19909;-73
2022/06/05 12:20:11;;;;;;;;;;;29.60;56.30;;;;;;5070908;28;20261;-74
2022/06/05 12:22:46;;;;;;;;;;;29.60;56.30;;;;;;5043503;28;20047;-74
2022/06/05 12:25:12;;;;;;;;;;;29.60;56.70;;;;;;5073399;28;19921;-72
2022/06/05 12:27:45;;;;;;;;;;;29.60;57.50;;;;;;5075874;28;19932;-71
2022/06/05 12:30:23;;;;;;;;;;;29.60;57.50;;;;;;5075733;28;20268;-71
2022/06/05 12:32:48;;;;;;;;;;;29.70;56.50;;;;;;5073363;28;20046;-70
2022/06/05 12:35:20;;;;;;;;;;;29.70;56.30;;;;;;5075969;28;19950;-75
2022/06/05 12:38:00;;;;;;;;;;;29.70;56.10;;;;;;5075611;28;19908;-69
2022/06/05 12:40:31;;;;;;;;;;;29.70;55.90;;;;;;5075154;28;19921;-73
2022/06/05 12:43:17;;;;;;;;;;;29.60;56.10;;;;;;5076033;28;20327;-73
2022/06/05 12:45:43;;;;;;;;;;;29.60;55.40;;;;;;5068543;28;19926;-69
2022/06/05 12:48:24;;;;;;;;;;;29.60;55.80;;;;;;5076082;28;19915;-73
2022/06/05 12:51:08;;;;;;;;;;;29.60;55.40;;;;;;5075773;28;19920;-73
2022/06/05 12:53:43;;;;;;;;;;;29.60;54.70;;;;;;5075539;28;19920;-73
2022/06/05 12:56:20;;;;;;;;;;;29.60;53.70;;;;;;5075921;28;19909;-75
2022/06/05 12:58:59;;;;;;;;;;;29.40;53.40;;;;;;5074547;28;19961;-76
2022/06/05 13:01:27;;;;;;;;;;;29.30;53.10;;;;;;5073871;28;19909;-74
2022/06/05 13:03:56;;;;;;;;;;;29.20;53.60;;;;;;5075672;28;20348;-75
2022/06/05 13:06:25;;;;;;;;;;;29.10;51.20;;;;;;5075517;28;19916;-76
2022/06/05 13:08:54;;;;;;;;;;;29.00;52.10;;;;;;5075523;28;20424;-76
2022/06/05 13:11:29;;;;;;;;;;;28.90;52.40;;;;;;5075197;28;19981;-77
2022/06/05 13:14:09;;;;;;;;;;;28.90;51.60;;;;;;5075408;28;19908;-77
2022/06/05 13:16:47;;;;;;;;;;;29.00;50.90;;;;;;5073965;28;19916;-77
2022/06/05 13:19:13;;;;;;;;;;;28.90;50.60;;;;;;5080909;28;20360;-78
2022/06/05 13:21:42;;;;;;;;;;;29.00;50.50;;;;;;5074625;28;19969;-75
2022/06/05 13:24:16;;;;;;;;;;;29.00;51.00;;;;;;5075398;28;19908;-75
2022/06/05 13:26:56;;;;;;;;;;;29.00;51.20;;;;;;5075613;28;19916;-75
2022/06/05 13:29:24;;;;;;;;;;;29.10;50.40;;;;;;5074881;28;19944;-76
2022/06/05 13:31:57;;;;;;;;;;;29.10;50.30;;;;;;5073863;28;20025;-76
2022/06/05 13:34:27;;;;;;;;;;;29.20;50.20;;;;;;5073976;28;19909;-77
2022/06/05 13:36:56;;;;;;;;;;;29.30;50.10;;;;;;5074812;28;20268;-73
2022/06/05 13:39:26;;;;;;;;;;;29.30;49.90;;;;;;5074697;28;19920;-77
2022/06/05 13:41:55;;;;;;;;;;;29.40;50.50;;;;;;5074131;28;20340;-74
2022/06/05 13:44:22;;;;;;;;;;;29.40;49.90;;;;;;5074216;28;19992;-75
2022/06/05 13:47:01;;;;;;;;;;;29.50;49.80;;;;;;5075332;28;19913;-75
2022/06/05 13:49:39;;;;;;;;;;;29.50;50.00;;;;;;5074274;28;19912;-76
2022/06/05 13:52:04;;;;;;;;;;;29.50;50.20;;;;;;5071375;28;19915;-76
2022/06/05 13:54:51;;;;;;;;;;;29.50;50.10;;;;;;5073993;28;19909;-75
2022/06/05 13:57:20;;;;;;;;;;;29.50;50.10;;;;;;5071653;28;20007;-77
2022/06/05 13:59:51;;;;;;;;;;;29.50;50.10;;;;;;5074550;28;19908;-75
2022/06/05 14:02:22;;;;;;;;;;;29.50;50.70;;;;;;5075125;28;20275;-74
2022/06/05 14:05:00;;;;;;;;;;;29.50;50.40;;;;;;5074273;28;19923;-78
2022/06/05 14:07:28;;;;;;;;;;;29.50;50.70;;;;;;5073237;28;19912;-77
2022/06/05 14:10:04;;;;;;;;;;;29.50;50.50;;;;;;5070457;28;19935;-78
2022/06/05 14:12:31;;;;;;;;;;;29.50;50.50;;;;;;5074419;28;19908;-78
2022/06/05 14:14:57;;;;;;;;;;;29.50;49.80;;;;;;5073582;28;20443;-74
2022/06/05 14:17:25;;;;;;;;;;;29.60;50.00;;;;;;5072909;28;19908;-75
2022/06/05 14:19:56;;;;;;;;;;;29.60;49.40;;;;;;5073336;28;19976;-75
2022/06/05 14:22:27;;;;;;;;;;;29.40;49.50;;;;;;5071494;28;20322;-77
2022/06/05 14:24:54;;;;;;;;;;;29.40;49.50;;;;;;5072115;28;20365;-76
2022/06/05 14:27:34;;;;;;;;;;;29.40;49.90;;;;;;5073133;28;19912;-78
2022/06/05 14:30:02;;;;;;;;;;;29.40;49.70;;;;;;5072613;28;19926;-77
2022/06/05 14:32:34;;;;;;;;;;;29.40;49.40;;;;;;5072836;28;19908;-76
2022/06/05 14:35:17;;;;;;;;;;;29.40;49.90;;;;;;5072821;28;19912;-76
2022/06/05 14:37:46;;;;;;;;;;;29.40;49.90;;;;;;5072895;28;20330;-74
2022/06/05 14:40:14;;;;;;;;;;;29.30;49.20;;;;;;5072864;28;19991;-74
2022/06/05 14:42:43;;;;;;;;;;;29.40;48.90;;;;;;5072690;28;19916;-74
2022/06/05 14:45:27;;;;;;;;;;;29.40;49.10;;;;;;5071595;28;19978;-77
2022/06/05 14:48:13;;;;;;;;;;;29.40;48.50;;;;;;5072255;28;20003;-75
2022/06/05 14:50:57;;;;;;;;;;;29.40;47.70;;;;;;5071428;28;19920;-71